createdAt,value
2022-12-01T00:01:21.425Z,73.57
2022-12-01T00:03:50.370Z,72.89
2022-12-01T00:06:19.940Z,73.43
2022-12-01T00:09:08.379Z,72.68
2022-12-01T00:11:37.230Z,73.26
2022-12-01T00:14:05.347Z,73.67
2022-12-01T00:16:33.625Z,73.87
2022-12-01T00:19:02.764Z,73.33
2022-12-01T00:21:30.462Z,73.14
2022-12-01T00:23:59.022Z,72.85
2022-12-01T00:26:28.090Z,73.17
2022-12-01T00:28:57.571Z,72.99
2022-12-01T00:31:25.770Z,72.34
2022-12-01T00:33:56.782Z,73.07
2022-12-01T00:36:26.040Z,72.90
2022-12-01T00:38:55.283Z,73.36
2022-12-01T00:41:23.955Z,72.68
2022-12-01T00:43:52.418Z,73.73
2022-12-01T00:46:20.103Z,74.12
2022-12-01T00:48:47.760Z,72.78
2022-12-01T00:51:15.307Z,73.67
2022-12-01T00:53:44.175Z,73.25
2022-12-01T00:56:11.737Z,73.29
2022-12-01T00:58:39.257Z,73.84
2022-12-01T01:01:07.330Z,74.14
2022-12-01T01:03:35.583Z,73.50
2022-12-01T01:06:07.562Z,73.19
2022-12-01T01:08:35.247Z,73.19
2022-12-01T01:11:05.456Z,72.45
2022-12-01T01:13:33.418Z,73.13
2022-12-01T01:16:03.032Z,73.30
2022-12-01T01:18:31.008Z,72.95
2022-12-01T01:20:58.977Z,73.37
2022-12-01T01:23:27.349Z,72.76
2022-12-01T01:25:54.949Z,72.72
2022-12-01T01:28:23.905Z,73.48
2022-12-01T01:30:51.479Z,72.43
2022-12-01T01:33:18.981Z,72.54
2022-12-01T01:35:46.481Z,72.48
2022-12-01T01:38:14.075Z,72.95
2022-12-01T01:40:44.030Z,72.52
2022-12-01T01:43:15.959Z,72.95
2022-12-01T01:45:45.428Z,72.67
2022-12-01T01:48:14.400Z,73.14
2022-12-01T01:50:42.499Z,72.50
2022-12-01T01:53:13.475Z,72.70
2022-12-01T01:55:41.062Z,72.85
2022-12-01T01:58:11.093Z,72.72
2022-12-01T02:00:40.106Z,72.74
2022-12-01T02:03:10.514Z,72.68
2022-12-01T02:05:38.971Z,72.71
2022-12-01T02:08:12.191Z,72.62
2022-12-01T02:10:57.337Z,72.78
2022-12-01T02:13:34.596Z,72.13
2022-12-01T02:16:10.887Z,72.74
2022-12-01T02:18:51.268Z,72.20
2022-12-01T02:21:38.577Z,72.61
2022-12-01T02:24:39.674Z,72.32
2022-12-01T02:27:20.873Z,72.75
2022-12-01T02:30:07.087Z,72.36
2022-12-01T02:32:49.835Z,71.98
2022-12-01T02:35:24.375Z,72.08
2022-12-01T02:38:08.056Z,72.55
2022-12-01T02:40:42.287Z,72.56
2022-12-01T02:43:17.144Z,71.43
2022-12-01T02:45:49.614Z,71.28
2022-12-01T02:48:24.576Z,72.47
2022-12-01T02:50:54.663Z,71.93
2022-12-01T02:53:22.409Z,72.01
2022-12-01T02:55:52.957Z,71.80
2022-12-01T02:58:21.040Z,72.03
2022-12-01T03:01:18.128Z,72.38
2022-12-01T03:04:01.588Z,72.42
2022-12-01T03:06:40.970Z,71.83
2022-12-01T03:09:17.178Z,71.85
2022-12-01T03:11:51.522Z,72.44
2022-12-01T03:14:30.065Z,72.45
2022-12-01T03:16:59.761Z,72.26
2022-12-01T03:19:36.410Z,71.79
2022-12-01T03:22:09.817Z,72.60
2022-12-01T03:24:39.790Z,71.52
2022-12-01T03:27:09.766Z,71.92
2022-12-01T03:29:41.267Z,71.96
2022-12-01T03:32:15.559Z,72.39
2022-12-01T03:34:50.830Z,71.95
2022-12-01T03:37:22.562Z,71.87
2022-12-01T03:39:58.752Z,72.11
2022-12-01T03:42:32.815Z,72.31
2022-12-01T03:45:04.894Z,72.96
2022-12-01T03:47:35.571Z,72.45
2022-12-01T03:50:06.781Z,71.57
2022-12-01T03:52:44.817Z,72.13
2022-12-01T03:55:18.646Z,71.59
2022-12-01T03:57:51.154Z,72.19
2022-12-01T04:00:20.478Z,72.10
2022-12-01T04:02:48.858Z,71.90
2022-12-01T04:05:22.475Z,72.13
2022-12-01T04:07:53.167Z,72.30
2022-12-01T04:10:20.837Z,71.58
2022-12-01T04:12:47.452Z,71.58
2022-12-01T04:15:16.598Z,72.82
2022-12-01T04:17:45.501Z,72.78
2022-12-01T04:20:15.211Z,72.60
2022-12-01T04:22:44.317Z,72.32
2022-12-01T04:25:12.509Z,72.11
2022-12-01T04:27:40.009Z,72.43
2022-12-01T04:30:09.059Z,71.91
2022-12-01T04:32:39.053Z,72.99
2022-12-01T04:35:07.647Z,72.24
2022-12-01T04:37:35.227Z,73.08
2022-12-01T04:40:05.704Z,72.57
2022-12-01T04:42:33.368Z,73.39
2022-12-01T04:45:00.927Z,72.55
2022-12-01T04:47:28.549Z,73.04
2022-12-01T04:49:56.207Z,72.37
2022-12-01T04:52:23.800Z,72.35
2022-12-01T04:54:51.278Z,72.66
2022-12-01T04:57:20.104Z,73.03
2022-12-01T04:59:47.974Z,72.77
2022-12-01T05:02:15.975Z,72.44
2022-12-01T05:04:46.045Z,72.91
2022-12-01T05:07:13.572Z,72.34
2022-12-01T05:09:41.062Z,71.17
2022-12-01T05:12:08.660Z,71.76
2022-12-01T05:14:37.529Z,72.50
2022-12-01T05:17:05.080Z,71.31
2022-12-01T05:19:50.435Z,71.99
2022-12-01T05:22:26.985Z,72.21
2022-12-01T05:25:06.094Z,72.44
2022-12-01T05:27:33.598Z,71.72
2022-12-01T05:30:02.479Z,72.37
2022-12-01T05:32:30.002Z,72.04
2022-12-01T05:34:57.499Z,72.72
2022-12-01T05:37:25.012Z,71.87
2022-12-01T05:39:52.504Z,72.00
2022-12-01T05:42:19.987Z,72.21
2022-12-01T05:44:47.480Z,72.32
2022-12-01T05:47:16.317Z,71.52
2022-12-01T05:49:43.788Z,72.62
2022-12-01T05:52:11.430Z,72.52
2022-12-01T05:54:38.958Z,71.70
2022-12-01T05:57:06.472Z,72.27
2022-12-01T05:59:34.173Z,72.09
2022-12-01T06:02:01.811Z,72.88
2022-12-01T06:04:30.808Z,72.08
2022-12-01T06:06:58.344Z,71.47
2022-12-01T06:09:26.099Z,71.77
2022-12-01T06:11:53.664Z,71.81
2022-12-01T06:14:21.179Z,71.98
2022-12-01T06:16:48.752Z,72.04
2022-12-01T06:19:16.277Z,72.04
2022-12-01T06:21:45.126Z,73.08
2022-12-01T06:24:12.917Z,72.96
2022-12-01T06:26:40.452Z,72.23
2022-12-01T06:29:07.942Z,73.10
2022-12-01T06:31:35.457Z,72.68
2022-12-01T06:34:02.959Z,73.38
2022-12-01T06:36:30.499Z,74.22
2022-12-01T06:38:59.359Z,73.27
2022-12-01T06:41:26.875Z,73.48
2022-12-01T06:43:54.710Z,72.06
2022-12-01T06:46:22.346Z,72.99
2022-12-01T06:48:49.961Z,73.05
2022-12-01T06:51:17.435Z,72.76
2022-12-01T06:53:44.913Z,71.77
2022-12-01T06:56:13.813Z,72.52
2022-12-01T06:58:41.570Z,73.97
2022-12-01T07:01:10.543Z,72.70
2022-12-01T07:03:38.183Z,73.24
2022-12-01T07:06:06.601Z,72.88
2022-12-01T07:08:34.116Z,72.59
2022-12-01T07:11:03.893Z,71.93
2022-12-01T07:13:34.002Z,73.03
2022-12-01T07:16:02.493Z,72.58
2022-12-01T07:18:30.027Z,72.69
2022-12-01T07:21:01.065Z,72.68
2022-12-01T07:23:28.579Z,71.72
2022-12-01T07:25:59.789Z,71.51
2022-12-01T07:28:28.287Z,71.68
2022-12-01T07:31:02.536Z,71.41
2022-12-01T07:33:30.056Z,71.68
2022-12-01T07:35:57.555Z,71.87
2022-12-01T07:38:25.353Z,71.35
2022-12-01T07:40:52.825Z,71.19
2022-12-01T07:43:20.307Z,71.82
2022-12-01T07:45:48.025Z,72.37
2022-12-01T07:48:16.889Z,72.01
2022-12-01T07:50:44.393Z,72.21
2022-12-01T07:53:11.899Z,71.65
2022-12-01T07:55:39.332Z,72.55
2022-12-01T07:58:07.031Z,72.61
2022-12-01T08:00:34.567Z,72.13
2022-12-01T08:03:02.128Z,72.00
2022-12-01T08:05:31.046Z,71.96
2022-12-01T08:07:58.600Z,72.89
2022-12-01T08:10:26.225Z,73.30
2022-12-01T08:12:54.821Z,72.83
2022-12-01T08:15:22.372Z,73.79
2022-12-01T08:17:49.886Z,73.38
2022-12-01T08:20:23.533Z,72.99
2022-12-01T08:22:52.975Z,73.34
2022-12-01T08:25:20.417Z,72.89
2022-12-01T08:27:47.878Z,72.68
2022-12-01T08:30:15.568Z,73.09
2022-12-01T08:32:43.075Z,72.56
2022-12-01T08:35:10.939Z,73.04
2022-12-01T08:37:38.429Z,72.61
2022-12-01T08:40:08.997Z,72.27
2022-12-01T08:42:36.440Z,72.77
2022-12-01T08:45:04.068Z,71.76
2022-12-01T08:47:31.729Z,71.92
2022-12-01T08:49:59.383Z,72.37
2022-12-01T08:52:26.897Z,72.01
2022-12-01T08:54:54.727Z,72.12
2022-12-01T08:57:23.553Z,72.05
2022-12-01T08:59:51.496Z,71.63
2022-12-01T09:02:23.194Z,72.14
2022-12-01T09:04:51.168Z,71.34
2022-12-01T09:07:26.049Z,72.26
2022-12-01T09:09:54.023Z,72.50
2022-12-01T09:12:23.353Z,72.42
2022-12-01T09:14:50.808Z,72.10
2022-12-01T09:17:18.705Z,72.86
2022-12-01T09:19:46.370Z,71.75
2022-12-01T09:22:13.990Z,71.78
2022-12-01T09:24:41.465Z,71.62
2022-12-01T09:27:11.001Z,71.53
2022-12-01T09:29:39.800Z,72.09
2022-12-01T09:32:07.480Z,71.54
2022-12-01T09:34:34.939Z,70.88
2022-12-01T09:37:02.397Z,72.17
2022-12-01T09:39:29.898Z,71.67
2022-12-01T09:42:01.499Z,71.16
2022-12-01T09:44:38.269Z,71.75
2022-12-01T09:47:14.649Z,70.76
2022-12-01T09:49:51.273Z,70.79
2022-12-01T09:52:20.747Z,71.01
2022-12-01T09:54:48.861Z,71.24
2022-12-01T09:57:21.596Z,69.90
2022-12-01T09:59:49.654Z,71.12
2022-12-01T10:02:35.001Z,69.01
2022-12-01T10:05:07.437Z,70.54
2022-12-01T10:07:40.402Z,70.37
2022-12-01T10:10:14.306Z,69.40
2022-12-01T10:12:44.174Z,70.60
2022-12-01T10:15:33.126Z,69.88
2022-12-01T10:18:15.337Z,69.03
2022-12-01T10:20:49.544Z,68.28
2022-12-01T10:23:34.912Z,69.79
2022-12-01T10:26:14.024Z,68.85
2022-12-01T10:28:59.028Z,68.64
2022-12-01T10:31:34.455Z,68.83
2022-12-01T10:34:07.028Z,68.25
2022-12-01T10:36:35.356Z,69.55
2022-12-01T10:39:05.207Z,68.78
2022-12-01T10:41:36.363Z,69.56
2022-12-01T10:44:06.912Z,68.93
2022-12-01T10:46:40.556Z,68.82
2022-12-01T10:49:12.116Z,69.28
2022-12-01T10:51:54.631Z,68.48
2022-12-01T10:54:23.196Z,67.65
2022-12-01T10:56:56.024Z,68.32
2022-12-01T10:59:28.065Z,67.49
2022-12-01T11:01:56.387Z,68.69
2022-12-01T11:04:34.269Z,67.90
2022-12-01T11:07:02.095Z,68.56
2022-12-01T11:09:30.961Z,68.75
2022-12-01T11:12:00.440Z,69.18
2022-12-01T11:14:36.328Z,68.19
2022-12-01T11:17:17.239Z,68.34
2022-12-01T11:19:46.303Z,66.75
2022-12-01T11:22:23.413Z,68.17
2022-12-01T11:24:59.352Z,67.27
2022-12-01T11:27:30.505Z,67.55
2022-12-01T11:30:02.593Z,66.48
2022-12-01T11:32:32.208Z,66.53
2022-12-01T11:35:04.064Z,66.56
2022-12-01T11:37:37.158Z,66.76
2022-12-01T11:40:14.812Z,65.75
2022-12-01T11:42:44.052Z,66.49
2022-12-01T11:45:25.749Z,66.17
2022-12-01T11:48:02.545Z,65.67
2022-12-01T11:50:34.457Z,66.92
2022-12-01T11:53:02.549Z,65.92
2022-12-01T11:55:31.590Z,66.22
2022-12-01T11:58:05.003Z,66.19
2022-12-01T12:00:45.198Z,67.48
2022-12-01T12:03:21.899Z,66.63
2022-12-01T12:06:38.483Z,66.38
2022-12-01T12:09:03.874Z,66.21
2022-12-01T12:11:44.395Z,66.60
2022-12-01T12:14:30.619Z,66.93
2022-12-01T12:17:22.951Z,66.16
2022-12-01T12:20:21.845Z,66.98
2022-12-01T12:23:03.361Z,65.30
2022-12-01T12:25:38.344Z,65.26
2022-12-01T12:28:19.597Z,65.68
2022-12-01T12:30:56.857Z,65.23
2022-12-01T12:33:39.101Z,66.24
2022-12-01T12:36:16.460Z,65.18
2022-12-01T12:39:03.602Z,65.73
2022-12-01T12:41:37.400Z,64.55
2022-12-01T12:44:24.838Z,65.79
2022-12-01T12:47:03.814Z,65.54
2022-12-01T12:49:41.523Z,65.57
2022-12-01T12:52:13.537Z,65.46
2022-12-01T12:54:50.026Z,65.58
2022-12-01T12:57:28.219Z,65.23
2022-12-01T12:59:59.992Z,65.24
2022-12-01T13:02:33.983Z,65.94
2022-12-01T13:05:07.792Z,65.85
2022-12-01T13:07:42.099Z,65.20
2022-12-01T13:10:22.972Z,65.25
2022-12-01T13:12:58.191Z,64.82
2022-12-01T13:15:27.131Z,64.75
2022-12-01T13:17:58.169Z,64.81
2022-12-01T13:20:28.825Z,64.78
2022-12-01T13:22:59.005Z,64.13
2022-12-01T13:25:30.796Z,64.62
2022-12-01T13:28:00.953Z,64.88
2022-12-01T13:30:28.611Z,64.57
2022-12-01T13:33:02.254Z,64.61
2022-12-01T13:35:32.138Z,63.68
2022-12-01T13:38:29.388Z,64.03
2022-12-01T13:41:23.661Z,64.28
2022-12-01T13:44:04.612Z,64.75
2022-12-01T13:46:50.324Z,63.50
2022-12-01T13:49:33.675Z,64.16
2022-12-01T13:52:29.663Z,64.54
2022-12-01T13:55:16.743Z,64.64
2022-12-01T13:57:49.338Z,64.33
2022-12-01T14:00:26.024Z,64.02
2022-12-01T14:03:30.912Z,64.60
2022-12-01T14:06:09.672Z,64.51
2022-12-01T14:08:38.660Z,64.16
2022-12-01T14:11:09.657Z,63.75
2022-12-01T14:13:50.185Z,64.51
2022-12-01T14:16:18.125Z,63.55
2022-12-01T14:18:51.377Z,65.05
2022-12-01T14:21:44.697Z,64.46
2022-12-01T14:24:23.212Z,64.23
2022-12-01T14:26:52.244Z,64.57
2022-12-01T14:29:32.610Z,63.99
2022-12-01T14:32:20.169Z,64.09
2022-12-01T14:34:53.261Z,64.68
2022-12-01T14:37:25.706Z,64.41
2022-12-01T14:39:59.066Z,64.64
2022-12-01T14:42:49.358Z,64.80
2022-12-01T14:45:22.406Z,64.98
2022-12-01T14:47:56.896Z,63.86
2022-12-01T14:50:29.446Z,64.30
2022-12-01T14:53:04.788Z,63.70
2022-12-01T14:55:36.127Z,64.91
2022-12-01T14:58:06.383Z,64.82
2022-12-01T15:00:37.995Z,65.94
2022-12-01T15:03:10.651Z,65.50
2022-12-01T15:05:41.110Z,64.93
2022-12-01T15:08:40.816Z,66.34
2022-12-01T15:11:19.846Z,65.39
2022-12-01T15:13:50.340Z,65.63
2022-12-01T15:16:20.559Z,65.95
2022-12-01T15:18:48.405Z,65.76
2022-12-01T15:21:19.406Z,64.97
2022-12-01T15:23:56.658Z,64.60
2022-12-01T15:26:27.308Z,64.41
2022-12-01T15:29:16.835Z,65.46
2022-12-01T15:31:47.180Z,64.73
2022-12-01T15:34:19.043Z,64.94
2022-12-01T15:36:48.167Z,64.88
2022-12-01T15:39:19.828Z,64.90
2022-12-01T15:41:53.727Z,64.60
2022-12-01T15:44:26.819Z,64.10
2022-12-01T15:46:54.286Z,64.55
2022-12-01T15:49:27.555Z,65.28
2022-12-01T15:51:55.648Z,64.47
2022-12-01T15:54:27.476Z,65.51
2022-12-01T15:56:58.430Z,65.41
2022-12-01T15:59:30.890Z,64.93
2022-12-01T16:01:58.863Z,64.55
2022-12-01T16:04:29.143Z,64.36
2022-12-01T16:06:59.526Z,65.15
2022-12-01T16:09:33.044Z,64.59
2022-12-01T16:12:19.705Z,64.55
2022-12-01T16:14:53.419Z,65.16
2022-12-01T16:17:21.395Z,65.19
2022-12-01T16:19:49.100Z,65.50
2022-12-01T16:22:19.036Z,65.02
2022-12-01T16:24:50.833Z,65.11
2022-12-01T16:27:21.959Z,65.71
2022-12-01T16:29:51.839Z,65.62
2022-12-01T16:32:22.179Z,65.32
2022-12-01T16:34:51.381Z,65.07
2022-12-01T16:37:19.264Z,65.46
2022-12-01T16:39:48.063Z,65.13
2022-12-01T16:42:17.403Z,65.71
2022-12-01T16:44:46.489Z,65.94
2022-12-01T16:47:16.059Z,65.77
2022-12-01T16:49:43.821Z,65.63
2022-12-01T16:55:01.482Z,66.17
2022-12-01T16:57:29.024Z,66.61
2022-12-01T16:59:56.716Z,65.95
2022-12-01T17:02:24.522Z,66.10
2022-12-01T17:04:52.821Z,66.06
2022-12-01T17:07:20.646Z,66.57
2022-12-01T17:09:48.460Z,65.69
2022-12-01T17:12:17.292Z,64.83
2022-12-01T17:14:44.894Z,64.71
2022-12-01T17:17:12.360Z,64.96
2022-12-01T17:19:40.056Z,64.94
2022-12-01T17:22:07.607Z,64.22
2022-12-01T17:24:35.141Z,63.70
2022-12-01T17:27:03.014Z,63.83
2022-12-01T17:29:32.662Z,63.77
2022-12-01T17:32:00.165Z,63.73
2022-12-01T17:34:28.242Z,63.98
2022-12-01T17:36:56.821Z,63.83
2022-12-01T17:39:26.093Z,63.22
2022-12-01T17:41:55.414Z,63.41
2022-12-01T17:44:23.095Z,63.55
2022-12-01T17:46:56.732Z,63.42
2022-12-01T17:49:27.216Z,63.44
2022-12-01T17:51:55.130Z,63.91
2022-12-01T17:54:23.288Z,64.17
2022-12-01T17:56:51.642Z,62.81
2022-12-01T17:59:19.359Z,63.35
2022-12-01T18:01:47.575Z,63.07
2022-12-01T18:04:17.290Z,63.01
2022-12-01T18:06:49.227Z,62.09
2022-12-01T18:09:21.454Z,62.81
2022-12-01T18:11:49.496Z,62.95
2022-12-01T18:14:18.041Z,63.15
2022-12-01T18:16:46.155Z,63.35
2022-12-01T18:19:14.156Z,63.05
2022-12-01T18:21:45.212Z,62.09
2022-12-01T18:24:13.223Z,61.70
2022-12-01T18:26:41.939Z,62.10
2022-12-01T18:29:15.887Z,62.50
2022-12-01T18:31:44.184Z,62.59
2022-12-01T18:34:12.808Z,63.07
2022-12-01T18:36:41.616Z,63.15
2022-12-01T18:39:14.249Z,62.65
2022-12-01T18:41:41.937Z,62.52
2022-12-01T18:44:09.703Z,62.12
2022-12-01T18:46:37.695Z,62.65
2022-12-01T18:49:07.968Z,62.74
2022-12-01T18:51:37.814Z,62.56
2022-12-01T18:54:07.737Z,63.50
2022-12-01T18:56:37.032Z,62.86
2022-12-01T18:59:08.442Z,63.28
2022-12-01T19:01:38.268Z,63.03
2022-12-01T19:04:07.550Z,62.49
2022-12-01T19:06:37.067Z,63.29
2022-12-01T19:09:06.890Z,62.84
2022-12-01T19:11:36.340Z,62.39
2022-12-01T19:14:04.310Z,61.67
2022-12-01T19:16:31.929Z,62.55
2022-12-01T19:18:59.527Z,62.19
2022-12-01T19:21:26.966Z,62.39
2022-12-01T19:23:54.731Z,62.27
2022-12-01T19:26:23.927Z,62.28
2022-12-01T19:28:52.739Z,62.33
2022-12-01T19:31:22.616Z,61.95
2022-12-01T19:33:50.574Z,62.78
2022-12-01T19:36:21.020Z,61.83
2022-12-01T19:38:49.024Z,63.19
2022-12-01T19:41:20.222Z,63.23
2022-12-01T19:43:48.310Z,62.77
2022-12-01T19:46:19.868Z,63.25
2022-12-01T19:48:47.676Z,61.92
2022-12-01T19:51:18.671Z,62.21
2022-12-01T19:53:46.578Z,62.80
2022-12-01T19:56:14.102Z,62.95
2022-12-01T19:58:41.596Z,62.64
2022-12-01T20:01:10.933Z,63.12
2022-12-01T20:03:40.870Z,63.05
2022-12-01T20:06:10.959Z,62.30
2022-12-01T20:08:38.816Z,62.58
2022-12-01T20:11:07.376Z,63.18
2022-12-01T20:13:36.584Z,62.54
2022-12-01T20:16:06.444Z,62.75
2022-12-01T20:18:34.699Z,62.66
2022-12-01T20:21:09.188Z,63.39
2022-12-01T20:23:37.470Z,62.79
2022-12-01T20:26:07.526Z,62.88
2022-12-01T20:28:36.355Z,63.48
2022-12-01T20:31:15.125Z,62.73
2022-12-01T20:33:43.559Z,62.59
2022-12-01T20:36:12.621Z,62.73
2022-12-01T20:38:40.107Z,63.14
2022-12-01T20:41:07.927Z,63.22
2022-12-01T20:43:36.501Z,63.75
2022-12-01T20:46:04.675Z,63.77
2022-12-01T20:48:33.041Z,63.60
2022-12-01T20:51:01.331Z,62.80
2022-12-01T20:53:30.718Z,62.44
2022-12-01T20:55:58.457Z,62.55
2022-12-01T20:58:25.911Z,62.28
2022-12-01T21:00:54.087Z,62.66
2022-12-01T21:03:21.676Z,62.46
2022-12-01T21:05:49.406Z,62.97
2022-12-01T21:08:17.046Z,63.12
2022-12-01T21:10:46.995Z,62.58
2022-12-01T21:13:37.491Z,62.88
2022-12-01T21:16:12.398Z,62.09
2022-12-01T21:18:51.051Z,62.76
2022-12-01T21:21:24.823Z,62.19
2022-12-01T21:24:11.656Z,62.76
2022-12-01T21:26:43.387Z,61.94
2022-12-01T21:29:18.932Z,62.49
2022-12-01T21:31:47.197Z,62.65
2022-12-01T21:34:18.721Z,63.26
2022-12-01T21:36:48.250Z,64.27
2022-12-01T21:39:18.032Z,64.16
2022-12-01T21:41:47.998Z,63.51
2022-12-01T21:44:17.867Z,63.81
2022-12-01T21:46:45.949Z,63.65
2022-12-01T21:49:16.652Z,63.35
2022-12-01T21:51:44.685Z,62.65
2022-12-01T21:54:14.881Z,63.18
2022-12-01T21:56:42.474Z,63.75
2022-12-01T21:59:17.983Z,62.69
2022-12-01T22:01:45.625Z,63.14
2022-12-01T22:04:17.414Z,62.75
2022-12-01T22:06:48.420Z,62.81
2022-12-01T22:09:22.804Z,62.61
2022-12-01T22:11:53.777Z,62.71
2022-12-01T22:14:25.014Z,62.58
2022-12-01T22:16:58.356Z,62.78
2022-12-01T22:19:29.695Z,62.49
2022-12-01T22:22:16.487Z,62.95
2022-12-01T22:24:46.293Z,62.84
2022-12-01T22:27:28.103Z,62.83
2022-12-01T22:29:59.996Z,62.93
2022-12-01T22:32:39.312Z,62.58
2022-12-01T22:35:33.868Z,62.65
2022-12-01T22:38:20.230Z,62.79
2022-12-01T22:40:54.593Z,62.94
2022-12-01T22:43:43.003Z,62.91
2022-12-01T22:46:31.924Z,62.94
2022-12-01T22:49:02.356Z,62.92
2022-12-01T22:51:36.157Z,63.05
2022-12-01T22:54:23.271Z,62.89
2022-12-01T22:56:54.930Z,62.85
2022-12-01T22:59:24.058Z,63.06
2022-12-01T23:01:55.544Z,63.90
2022-12-01T23:04:27.660Z,63.09
2022-12-01T23:07:09.301Z,63.67
2022-12-01T23:09:40.629Z,63.27
2022-12-01T23:12:33.338Z,62.84
2022-12-01T23:15:16.609Z,62.41
2022-12-01T23:17:45.496Z,62.44
2022-12-01T23:20:26.997Z,62.28
2022-12-01T23:22:58.219Z,62.93
2022-12-01T23:25:27.223Z,62.87
2022-12-01T23:27:58.653Z,62.32
2022-12-01T23:30:26.609Z,62.56
2022-12-01T23:33:05.085Z,62.32
2022-12-01T23:35:39.211Z,62.19
2022-12-01T23:38:10.090Z,62.33
2022-12-01T23:40:37.920Z,61.61
2022-12-01T23:43:16.552Z,61.52
2022-12-01T23:45:45.205Z,62.91
2022-12-01T23:48:20.203Z,61.96
2022-12-01T23:50:49.751Z,62.67
2022-12-01T23:53:25.547Z,62.65
2022-12-01T23:55:53.011Z,62.25
2022-12-01T23:58:20.578Z,62.66
